Flight Track Log - Related Links

Times and Time Zones

All times are in EDT time to prevent confusion due to time zone crossing. See the WJA2347 flight status page for this flight to view local times or setup timezone preferences in your user account.

Time Position Orientation Groundspeed Altitude Reporting Facility
EDT Latitude Longitude Course Direction KTS MPH feet Rate Location/Type
Tue 07:26:27 PM 30.8617 -106.4200 345° North 408 470 36,000  Level Albuquerque Center
Tue 07:27:28 PM 30.9711 -106.4547 345° North 408 470 36,000  Level Albuquerque Center
Tue 07:28:30 PM 31.0833 -106.4894 345° North 414 476 36,000  Level Albuquerque Center
Tue 07:29:31 PM 31.1994 -106.5275 344° North 415 478 36,000  Level Albuquerque Center
Tue 07:30:32 PM 31.3122 -106.5617 345° North 416 479 36,000  Level Albuquerque Center
Tue 07:31:34 PM 31.4428 -106.6036 345° North 423 487 36,000  Level Albuquerque Center
Tue 07:32:35 PM 31.5561 -106.6386 345° North 421 484 36,000  Level Albuquerque Center
Tue 07:33:37 PM 31.6689 -106.6742 345° North 421 484 36,000  Level Albuquerque Center
Tue 07:34:38 PM 31.7825 -106.7100 345° North 423 487 36,000  Level Albuquerque Center
Tue 07:35:40 PM 31.8942 -106.7497 343° North 420 483 36,000  Level Albuquerque Center
Tue 07:36:41 PM 32.0053 -106.7917 342° North 419 482 36,000  Level Albuquerque Center
Tue 07:37:42 PM 32.1164 -106.8331 342° North 420 483 36,000  Level Albuquerque Center
Tue 07:38:44 PM 32.2456 -106.8814 342° North 421 484 36,000  Level Albuquerque Center
Tue 07:39:45 PM 32.3586 -106.9247 342° North 425 489 36,000  Level Albuquerque Center
Tue 07:40:47 PM 32.4619 -106.9639 342° North 426 490 36,000  Level Albuquerque Center
Tue 07:41:49 PM 32.5753 -107.0081 342° North 427 491 36,000  Level Albuquerque Center
Tue 07:42:50 PM 32.7106 -107.0606 342° North 427 491 36,000  Level Albuquerque Center
Tue 07:43:51 PM 32.8075 -107.0989 342° North 429 494 36,000  Level Albuquerque Center
Tue 07:44:53 PM 32.9422 -107.1503 342° North 426 490 36,000  Level Albuquerque Center
Tue 07:45:54 PM 33.0553 -107.1953 342° North 429 494 36,000  Level Albuquerque Center
Tue 07:46:56 PM 33.1686 -107.2372 343° North 427 491 36,000  Level Albuquerque Center
Tue 07:47:57 PM 33.2831 -107.2806 342° North 431 496 36,000  Level Albuquerque Center
Tue 07:48:59 PM 33.4014 -107.3111 348° North 433 498 36,000  Level Albuquerque Center
Tue 07:50:00 PM 33.5219 -107.3383 349° North 439 505 36,000  Level Albuquerque Center
Tue 07:51:02 PM 33.6425 -107.3683 348° North 441 507 36,000  Level Albuquerque Center
Tue 07:52:04 PM 33.7633 -107.3983 348° North 442 509 36,000 195 Level Albuquerque Center
Tue 07:53:05 PM 33.9081 -107.4353 348° North 442 509 36,400 488 Climbing Albuquerque Center
Tue 07:54:07 PM 34.0286 -107.4642 349° North 441 507 37,000 293 Climbing Albuquerque Center
Tue 07:55:08 PM 34.1478 -107.4933 349° North 439 505 37,000  Level Albuquerque Center
Tue 07:56:10 PM 34.2672 -107.5231 348° North 439 505 37,000  Level Albuquerque Center
Tue 07:57:12 PM 34.3872 -107.5547 348° North 443 510 37,000  Level Albuquerque Center
Tue 07:58:13 PM 34.5092 -107.5839 349° North 445 512 37,000  Level Albuquerque Center
Tue 07:59:15 PM 34.6306 -107.6144 348° North 444 511 37,000  Level Albuquerque Center
Tue 08:00:17 PM 34.7528 -107.6453 348° North 444 511 37,000  Level Albuquerque Center
Tue 08:01:18 PM 34.8992 -107.6828 348° North 445 512 37,000  Level Albuquerque Center
Tue 08:02:20 PM 35.0217 -107.7131 349° North 445 512 37,000  Level Albuquerque Center
Tue 08:03:22 PM 35.1347 -107.7431 348° North 444 511 37,000 -145 Level Albuquerque Center
Tue 08:04:24 PM 35.2692 -107.7756 349° North 441 507 36,700 -488 Descending Albuquerque Center
Tue 08:05:25 PM 35.3842 -107.8044 348° North 440 506 36,000 -341 Descending Albuquerque Center
Tue 08:06:27 PM 35.5189 -107.8403 348° North 443 510 36,000  Level Albuquerque Center
Tue 08:07:29 PM 35.6342 -107.8694 348° North 443 510 36,000  Level Albuquerque Center
Tue 08:08:30 PM 35.7686 -107.9039 348° North 442 509 36,000  Level Albuquerque Center
Tue 08:09:32 PM 35.8850 -107.9344 348° North 445 512 36,000  Level Albuquerque Center
Tue 08:10:34 PM 36.0219 -107.9694 348° North 450 518 36,000  Level Albuquerque Center
Tue 08:11:36 PM 36.1389 -108.0008 348° North 450 518 36,000  Level Albuquerque Center
Tue 08:11:57 PM 36.1783 -108.0103 349° North 451 519 36,000  Level Denver Center
Tue 08:12:59 PM 36.3156 -108.0469 348° North 453 521 36,000  Level Denver Center
Tue 08:14:01 PM 36.4339 -108.0772 348° North 454 522 36,000  Level Denver Center
Tue 08:15:03 PM 36.5744 -108.1142 348° North 460 529 36,000  Level Denver Center
Tue 08:16:05 PM 36.6950 -108.1478 347° North 463 533 36,000  Level Denver Center
Tue 08:17:06 PM 36.8358 -108.1844 348° North 463 533 36,000  Level Denver Center
Tue 08:18:08 PM 36.9567 -108.2167 348° North 463 533 36,000  Level Denver Center
Tue 08:19:10 PM 37.0975 -108.2544 348° North 466 536 36,000  Level Denver Center
Tue 08:20:12 PM 37.2178 -108.2861 348° North 462 532 36,000  Level Denver Center
Tue 08:21:13 PM 37.3586 -108.3250 348° North 462 532 36,000  Level Denver Center
Tue 08:22:15 PM 37.4803 -108.3569 348° North 464 534 36,000  Level Denver Center
Tue 08:23:17 PM 37.6064 -108.3697 355° North 477 549 36,000  Level Denver Center
Tue 08:24:19 PM 37.7522 -108.3789 357° North 471 542 36,000  Level Denver Center
Tue 08:25:20 PM 37.8778 -108.3903 356° North 471 542 36,000  Level Denver Center
Tue 08:26:22 PM 38.0236 -108.4056 355° North 470 541 36,000  Level Denver Center
Tue 08:27:24 PM 38.1533 -108.4414 348° North 457 526 36,000  Level Denver Center
Tue 08:28:26 PM 38.2733 -108.4778 347° North 461 531 36,000  Level Denver Center
Tue 08:29:27 PM 38.4128 -108.5189 347° North 461 531 36,000  Level Denver Center
Tue 08:30:29 PM 38.5306 -108.5561 346° North 456 525 36,000  Level Denver Center
Tue 08:31:31 PM 38.6483 -108.5931 346° North 455 524 36,000 194 Level Denver Center
Tue 08:32:33 PM 38.7867 -108.6361 346° North 460 529 36,400 488 Climbing Denver Center
Tue 08:33:34 PM 38.9047 -108.6733 346° North 456 525 37,000 293 Climbing Denver Center
Tue 08:34:36 PM 39.0428 -108.7169 346° North 457 526 37,000  Level Denver Center
Tue 08:35:38 PM 39.1622 -108.7547 346° North 461 531 37,000  Level Denver Center
Tue 08:36:40 PM 39.3022 -108.7986 346° North 460 529 37,000  Level Denver Center
Tue 08:37:42 PM 39.4222 -108.8367 346° North 460 529 37,000  Level Denver Center
Tue 08:38:43 PM 39.5419 -108.8739 347° North 456 525 37,000  Level Denver Center
Tue 08:39:45 PM 39.6833 -108.9200 346° North 457 526 37,000  Level Denver Center
Tue 08:40:47 PM 39.8011 -108.9556 347° North 450 518 37,000  Level Denver Center
Tue 08:41:48 PM 39.9175 -108.9928 346° North 448 516 37,000  Level Denver Center
Tue 08:42:21 PM 39.9953 -109.0183 346° North 447 514 37,000  Level Salt Lake Center
Tue 08:43:23 PM 40.1094 -109.0547 346° North 443 510 37,000  Level Salt Lake Center
Tue 08:43:52 PM 40.1675 -109.0736 346° North 446 513 37,000  Level Denver Center
Tue 08:44:53 PM 40.3022 -109.1169 346° North 446 513 37,000  Level Denver Center
Tue 08:45:26 PM 40.3606 -109.1356 346° North 446 513 37,000  Level Salt Lake Center
Tue 08:45:55 PM 40.4181 -109.1544 346° North 447 514 37,000  Level Denver Center
Tue 08:46:57 PM 40.5533 -109.1983 346° North 449 517 37,000  Level Denver Center
Tue 08:47:58 PM 40.6714 -109.2367 346° North 454 522 37,000  Level Denver Center
Tue 08:48:31 PM 40.7303 -109.2561 346° North 455 524 37,000  Level Salt Lake Center
Tue 08:49:33 PM 40.8578 -109.2978 346° North 457 526 37,000  Level Salt Lake Center
Tue 08:50:34 PM 40.9958 -109.3425 346° North 456 525 37,000  Level Salt Lake Center
Tue 08:51:36 PM 41.1136 -109.3817 346° North 454 522 37,000  Level Salt Lake Center
Tue 08:52:37 PM 41.2497 -109.4281 346° North 450 518 37,000  Level Salt Lake Center
Tue 08:53:39 PM 41.3661 -109.4672 346° North 447 514 37,000  Level Salt Lake Center
Tue 08:54:41 PM 41.4825 -109.5056 346° North 446 513 37,000  Level Salt Lake Center
Tue 08:55:42 PM 41.6172 -109.5511 346° North 444 511 37,000  Level Salt Lake Center
Tue 08:56:44 PM 41.7333 -109.5953 344° North 450 518 37,000  Level Salt Lake Center
Tue 08:57:45 PM 41.8458 -109.6511 340° North 450 518 37,000  Level Salt Lake Center
Tue 08:58:47 PM 41.9733 -109.7275 336° Northwest 448 516 37,000  Level Salt Lake Center
Tue 08:59:48 PM 42.0833 -109.7942 336° Northwest 452 520 37,000  Level Salt Lake Center
Tue 09:00:49 PM 42.2069 -109.8811 332° Northwest 450 518 37,000  Level Salt Lake Center
Tue 09:01:51 PM 42.3136 -109.9544 333° Northwest 450 518 37,000  Level Salt Lake Center
Tue 09:02:52 PM 42.4197 -110.0286 333° Northwest 448 516 37,000  Level Salt Lake Center
Tue 09:03:54 PM 42.5450 -110.1139 333° Northwest 451 519 37,000  Level Salt Lake Center
Tue 09:04:55 PM 42.6539 -110.1842 335° Northwest 453 521 37,000  Level Salt Lake Center
Tue 09:05:57 PM 42.7803 -110.2689 334° Northwest 454 522 37,000  Level Salt Lake Center
Tue 09:06:58 PM 42.8939 -110.3164 343° North 447 514 37,000  Level Salt Lake Center
Tue 09:08:00 PM 43.0225 -110.3539 348° North 447 514 37,000  Level Salt Lake Center
Tue 09:09:01 PM 43.1386 -110.3878 348° North 447 514 37,000  Level Salt Lake Center
Tue 09:10:02 PM 43.2617 -110.4264 347° North 445 512 37,000  Level Salt Lake Center
Tue 09:11:04 PM 43.3967 -110.4661 348° North 444 511 37,000  Level Salt Lake Center
Tue 09:12:05 PM 43.5164 -110.5042 347° North 445 512 37,000  Level Salt Lake Center
Tue 09:13:07 PM 43.6392 -110.5433 347° North 446 513 37,000  Level Salt Lake Center
Tue 09:14:08 PM 43.7539 -110.5811 347° North 444 511 37,000  Level Salt Lake Center
Tue 09:15:09 PM 43.8897 -110.6242 347° North 449 517 37,000  Level Salt Lake Center
Tue 09:16:11 PM 44.0042 -110.6603 347° North 443 510 37,000  Level Salt Lake Center
Tue 09:17:12 PM 44.1372 -110.7033 347° North 439 505 37,000  Level Salt Lake Center
Tue 09:18:14 PM 44.2517 -110.7411 347° North 442 509 37,000  Level Salt Lake Center
Tue 09:19:15 PM 44.3661 -110.7783 347° North 442 509 37,000  Level Salt Lake Center
Tue 09:20:16 PM 44.5000 -110.8214 347° North 442 509 37,000  Level Salt Lake Center
Tue 09:21:18 PM 44.6153 -110.8594 347° North 447 514 37,000  Level Salt Lake Center
Tue 09:22:19 PM 44.7497 -110.9033 347° North 447 514 37,000  Level Salt Lake Center
Tue 09:23:21 PM 44.8681 -110.9419 347° North 456 525 37,000  Level Salt Lake Center
Tue 09:24:22 PM 45.0033 -110.9858 347° North 452 520 37,000  Level Salt Lake Center
Tue 09:25:23 PM 45.1183 -111.0231 347° North 451 519 37,000  Level Salt Lake Center
Tue 09:26:25 PM 45.2383 -111.0633 347° North 445 512 37,000  Level Salt Lake Center
Tue 09:27:26 PM 45.3583 -111.1039 347° North 443 510 37,000  Level Salt Lake Center
Tue 09:28:27 PM 45.4781 -111.1450 346° North 442 509 37,000  Level Salt Lake Center
Tue 09:29:29 PM 45.5975 -111.1856 347° North 441 507 37,000  Level Salt Lake Center
Tue 09:30:30 PM 45.7189 -111.2275 346° North 440 506 37,000  Level Salt Lake Center
Tue 09:31:31 PM 45.8444 -111.2714 346° North 444 511 37,000  Level Salt Lake Center
Tue 09:32:33 PM 45.9636 -111.3117 347° North 436 502 37,000  Level Salt Lake Center
Tue 09:33:34 PM 46.0811 -111.3519 347° North 433 498 37,000  Level Salt Lake Center
Tue 09:34:35 PM 46.1997 -111.3931 347° North 436 502 37,000  Level Salt Lake Center
Tue 09:35:37 PM 46.3411 -111.4422 347° North 436 502 37,000  Level Salt Lake Center
Tue 09:36:38 PM 46.4567 -111.4839 346° North 436 502 37,000  Level Salt Lake Center
Tue 09:37:40 PM 46.5758 -111.5217 348° North 436 502 37,000  Level Salt Lake Center
Tue 09:38:41 PM 46.6947 -111.5639 346° North 439 505 37,000  Level Salt Lake Center
Tue 09:39:42 PM 46.8147 -111.6072 346° North 442 509 37,000  Level Salt Lake Center
Tue 09:40:44 PM 46.9336 -111.6494 346° North 442 509 37,000  Level Salt Lake Center
Tue 09:41:45 PM 47.0519 -111.6911 347° North 439 505 37,000  Level Salt Lake Center
Tue 09:42:46 PM 47.1708 -111.7336 346° North 439 505 37,000  Level Salt Lake Center
Tue 09:43:48 PM 47.2875 -111.7778 346° North 433 498 37,000  Level Salt Lake Center
Tue 09:44:49 PM 47.4050 -111.8197 346° North 432 497 37,000  Level Salt Lake Center
Tue 09:45:51 PM 47.5228 -111.8619 346° North 432 497 37,000  Level Salt Lake Center
Tue 09:46:52 PM 47.6664 -111.9156 346° North 438 504 37,000  Level Salt Lake Center
Tue 09:47:53 PM 47.7836 -111.9592 346° North 427 491 37,000  Level Salt Lake Center
Tue 09:48:55 PM 47.9000 -112.0028 346° North 428 493 37,000  Level Salt Lake Center
Tue 09:49:56 PM 48.0197 -112.0458 346° North 438 504 37,000  Level Salt Lake Center
Tue 09:50:57 PM 48.1356 -112.0900 346° North 433 498 37,000  Level Salt Lake Center
Tue 09:51:59 PM 48.2533 -112.1336 346° North 434 499 37,000  Level Salt Lake Center
Tue 09:53:00 PM 48.3697 -112.1783 346° North 433 498 37,000  Level Salt Lake Center
Tue 09:54:01 PM 48.4872 -112.2233 346° North 437 503 37,000  Level Salt Lake Center
Tue 09:55:03 PM 48.6056 -112.2678 346° North 438 504 37,000  Level Salt Lake Center
Tue 09:56:04 PM 48.7228 -112.3136 346° North 437 503 37,000  Level Salt Lake Center
Tue 09:57:05 PM 48.8636 -112.3672 346° North 435 501 37,000  Level Salt Lake Center
Tue 09:57:38 PM 48.9000 -112.3833 344° North 430 495 37,000  Level Edmonton Center
Tue 09:58:38 PM 49.0000 -112.4667 331° Northwest 430 495 37,000  Level Edmonton Center
Tue 09:59:38 PM 49.1167 -112.5000 349° North 430 495 37,000  Level Edmonton Center
Tue 10:00:38 PM 49.2333 -112.5500 344° North 430 495 37,000 -250 Level Edmonton Center
Tue 10:01:38 PM 49.3500 -112.6000 344° North 420 483 36,500 -1,200 Descending Edmonton Center
Tue 10:02:38 PM 49.4667 -112.6333 349° North 410 472 34,600 -1,850 Descending Edmonton Center
Tue 10:03:38 PM 49.5833 -112.6833 344° North 400 460 32,800 -1,850 Descending Edmonton Center
Tue 10:04:38 PM 49.6833 -112.7500 337° Northwest 380 437 30,900 -1,750 Descending Edmonton Center
Tue 10:05:38 PM 49.7500 -112.8167 327° Northwest 370 426 29,300 -1,550 Descending Edmonton Center
Tue 10:06:38 PM 49.8500 -112.8833 337° Northwest 360 414 27,800 -1,600 Descending Edmonton Center
Tue 10:07:38 PM 49.9500 -112.9667 332° Northwest 350 403 26,100 -1,650 Descending Edmonton Center
Tue 10:08:38 PM 50.0333 -113.0333 333° Northwest 340 391 24,500 -1,650 Descending Edmonton Center
Tue 10:09:38 PM 50.1167 -113.1000 333° Northwest 330 380 22,800 -1,650 Descending Edmonton Center
Tue 10:10:38 PM 50.1833 -113.1667 327° Northwest 320 368 21,200 -1,600 Descending Edmonton Center
Tue 10:11:38 PM 50.2667 -113.2333 333° Northwest 330 380 19,600 -1,650 Descending Edmonton Center
Tue 10:12:38 PM 50.3500 -113.3000 333° Northwest 330 380 17,900 -1,550 Descending Edmonton Center
Tue 10:13:38 PM 50.4333 -113.3333 346° North 320 368 16,500 -1,550 Descending Edmonton Center
Tue 10:14:38 PM 50.5000 -113.4000 328° Northwest 310 357 14,800 -1,600 Descending Edmonton Center
Tue 10:15:38 PM 50.5667 -113.4667 328° Northwest 300 345 13,300 -1,400 Descending Edmonton Center
Tue 10:16:38 PM 50.6500 -113.5500 328° Northwest 290 334 12,000 -700 Descending Edmonton Center
Tue 10:17:38 PM 50.7167 -113.5833 342° North 280 322 11,900 -200 Descending Edmonton Center
Tue 10:18:38 PM 50.8000 -113.6500 333° Northwest 290 334 11,600 -300 Descending Edmonton Center
Tue 10:19:38 PM 50.8500 -113.7167 320° Northwest 290 334 11,300 -1,000 Descending Edmonton Center
Tue 10:20:38 PM 50.9000 -113.8000 314° West 280 322 9,600 -1,650 Descending Edmonton Center
Tue 10:21:38 PM 50.9500 -113.9167 304° West 290 334 8,000 -800 Descending Edmonton Center
Tue 10:22:38 PM 50.9833 -114.0333 294° West 280 322 8,000  Level Edmonton Center
Tue 10:23:38 PM 51.0333 -114.1333 309° West 250 288 8,000  Level Edmonton Center
Tue 10:24:38 PM 51.0500 -114.2167 288° West 240 276 8,000 -300 Level Edmonton Center
Tue 10:25:38 PM 51.1000 -114.3000 314° West 250 288 7,400 -750 Descending Edmonton Center
Tue 10:26:38 PM 51.1500 -114.3167 348° North 230 265 6,500 -750 Descending Edmonton Center
Tue 10:27:38 PM 51.1500 -114.2333 90° East 190 219 5,900 -550 Descending Edmonton Center
Tue 10:28:38 PM 51.1333 -114.1500 108° East 170 196 5,400 -800 Descending Edmonton Center
Tue 10:29:38 PM 51.1167 -114.1000 118° Southeast 160 184 4,300 -900 Descending Edmonton Center
Tue 10:30:38 PM 51.0833 -114.0333 129° Southeast 160 184 3,600 -700 Descending Edmonton Center

Login

Don't have an account? Register now (free) for customized features, flight alerts, and more!